Time;durP1;ratioP1;P1;durP2;ratioP2;P2;SDS_P1;SDS_P2;PMS_P1;PMS_P2;Temp;Humidity;BMP_temperature;BMP_pressure;BME280_temperature;BME280_humidity;BME280_pressure;Samples;Min_cycle;Max_cycle;Signal;HPM_P1;HPM_P2
2023/08/07 00:00:43;;;;;;;2.53;1.08;;;14.90;99.90;;;;;;7389816;19;20500;-73
2023/08/07 00:03:11;;;;;;;1.80;0.90;;;15.00;99.90;;;;;;7392393;19;20154;-74
2023/08/07 00:05:37;;;;;;;1.48;1.00;;;15.00;99.90;;;;;;7389863;19;20157;-75
2023/08/07 00:08:03;;;;;;;1.50;0.93;;;14.80;99.90;;;;;;7390344;19;20927;-74
2023/08/07 00:10:29;;;;;;;1.33;0.90;;;14.90;99.90;;;;;;7390626;19;20127;-74
2023/08/07 00:12:55;;;;;;;2.25;1.20;;;15.00;99.90;;;;;;7390972;19;20149;-73
2023/08/07 00:15:21;;;;;;;1.70;0.88;;;14.90;99.90;;;;;;7393134;19;20131;-75
2023/08/07 00:17:47;;;;;;;1.20;0.80;;;14.90;99.90;;;;;;7388873;19;20139;-72
2023/08/07 00:20:12;;;;;;;2.42;1.08;;;14.90;99.90;;;;;;7385049;19;20138;-73
2023/08/07 00:22:38;;;;;;;1.98;0.90;;;15.00;99.90;;;;;;7389205;19;20140;-73
2023/08/07 00:25:04;;;;;;;2.15;1.10;;;14.70;99.90;;;;;;7391052;19;20139;-73
2023/08/07 00:27:30;;;;;;;2.13;0.90;;;14.90;99.90;;;;;;7389663;19;20661;-73
2023/08/07 00:29:56;;;;;;;1.02;0.93;;;14.70;99.90;;;;;;7390138;19;20130;-73
2023/08/07 00:32:22;;;;;;;2.60;0.90;;;14.90;99.90;;;;;;7388552;19;20159;-73
2023/08/07 00:34:48;;;;;;;2.35;1.00;;;14.70;99.90;;;;;;7393184;19;20142;-75
2023/08/07 00:37:13;;;;;;;1.30;0.80;;;14.80;99.90;;;;;;7390724;19;20210;-76
2023/08/07 00:39:39;;;;;;;1.60;0.90;;;15.00;99.90;;;;;;7386411;19;20150;-74
2023/08/07 00:42:05;;;;;;;1.77;0.80;;;15.00;99.90;;;;;;7392784;19;20275;-74
2023/08/07 00:44:31;;;;;;;2.20;1.10;;;15.10;99.90;;;;;;7388119;19;20145;-75
2023/08/07 00:46:57;;;;;;;1.83;0.93;;;14.80;99.90;;;;;;7383753;19;20147;-72
2023/08/07 00:49:23;;;;;;;2.90;1.20;;;14.90;99.90;;;;;;7391855;19;20138;-72
2023/08/07 00:51:48;;;;;;;4.15;1.25;;;15.00;99.90;;;;;;7389407;19;20172;-74
2023/08/07 00:54:18;;;;;;;1.60;0.90;;;15.10;99.90;;;;;;7389053;19;20157;-72
2023/08/07 00:56:44;;;;;;;1.48;0.93;;;15.10;99.90;;;;;;7389461;19;20149;-75
2023/08/07 00:59:10;;;;;;;2.95;1.00;;;14.80;99.90;;;;;;7384691;19;20142;-75
2023/08/07 01:01:36;;;;;;;2.38;0.93;;;14.90;99.90;;;;;;7392677;19;20443;-74
2023/08/07 01:04:02;;;;;;;1.35;0.90;;;14.90;99.90;;;;;;7389518;19;20176;-75
2023/08/07 01:06:28;;;;;;;0.80;0.73;;;15.00;99.90;;;;;;7389727;19;20571;-75
2023/08/07 01:08:54;;;;;;;1.25;0.80;;;15.00;99.90;;;;;;7389733;19;20486;-76
2023/08/07 01:11:50;;;;;;;1.90;1.00;;;15.10;99.90;;;;;;7389978;19;20218;-74
2023/08/07 01:14:24;;;;;;;4.43;1.08;;;14.90;99.90;;;;;;7390322;19;20135;-76
2023/08/07 01:16:59;;;;;;;2.45;1.00;;;14.90;99.90;;;;;;7391420;19;20129;-74
2023/08/07 01:19:28;;;;;;;1.88;1.02;;;14.90;99.90;;;;;;7385580;19;20146;-74
2023/08/07 01:22:14;;;;;;;2.65;0.95;;;14.70;99.90;;;;;;7391772;19;20141;-75
2023/08/07 01:24:47;;;;;;;2.08;0.82;;;14.90;99.90;;;;;;7390464;19;20194;-74
2023/08/07 01:27:16;;;;;;;2.20;0.93;;;14.90;99.90;;;;;;7390275;19;20149;-73
2023/08/07 01:29:58;;;;;;;1.60;1.10;;;14.80;99.90;;;;;;7388519;19;20154;-74
2023/08/07 01:32:47;;;;;;;1.70;1.15;;;14.80;99.90;;;;;;7393350;19;20138;-73
2023/08/07 01:35:15;;;;;;;4.28;1.25;;;15.00;99.90;;;;;;7395270;19;20626;-73
2023/08/07 01:37:42;;;;;;;2.05;0.93;;;14.80;99.90;;;;;;7396105;19;20405;-74
2023/08/07 01:40:10;;;;;;;0.80;0.80;;;14.80;99.90;;;;;;7396410;19;20127;-74
2023/08/07 01:42:37;;;;;;;3.70;1.10;;;14.90;99.90;;;;;;7395254;19;20233;-74
2023/08/07 01:45:04;;;;;;;1.63;0.98;;;15.00;99.90;;;;;;7397044;19;20123;-73
2023/08/07 01:47:30;;;;;;;1.75;1.20;;;14.90;99.90;;;;;;7396511;19;20131;-74
2023/08/07 01:49:56;;;;;;;1.60;0.90;;;14.90;99.90;;;;;;7396000;19;20141;-74
2023/08/07 01:52:22;;;;;;;1.73;0.88;;;14.90;99.90;;;;;;7395018;19;20155;-74
2023/08/07 01:54:48;;;;;;;1.70;0.82;;;14.70;99.90;;;;;;7396743;19;20582;-74
2023/08/07 01:57:14;;;;;;;1.60;0.90;;;14.60;99.90;;;;;;7394334;19;20133;-74
2023/08/07 01:59:39;;;;;;;1.83;1.00;;;14.70;99.90;;;;;;7396788;19;20135;-73
2023/08/07 02:02:05;;;;;;;2.63;1.00;;;14.70;99.90;;;;;;7391928;19;20234;-73
2023/08/07 02:04:31;;;;;;;2.05;1.00;;;14.90;99.90;;;;;;7392001;19;20192;-76
2023/08/07 02:06:57;;;;;;;2.30;0.65;;;14.80;99.90;;;;;;7396157;19;20138;-74
2023/08/07 02:09:22;;;;;;;2.78;1.20;;;14.80;99.90;;;;;;7394241;19;20142;-75
2023/08/07 02:11:48;;;;;;;2.13;0.90;;;14.80;99.90;;;;;;7395203;19;20138;-74
2023/08/07 02:14:14;;;;;;;0.93;0.80;;;15.00;99.90;;;;;;7396224;19;20123;-74
2023/08/07 02:16:40;;;;;;;1.75;0.80;;;14.90;99.90;;;;;;7395671;19;20569;-76
2023/08/07 02:19:05;;;;;;;2.53;0.95;;;14.80;99.90;;;;;;7392242;19;20210;-75
2023/08/07 02:21:32;;;;;;;2.25;0.90;;;14.70;99.90;;;;;;7396205;19;20176;-76
2023/08/07 02:23:58;;;;;;;1.70;0.70;;;14.60;99.90;;;;;;7392860;19;20600;-74
2023/08/07 02:26:24;;;;;;;1.92;1.00;;;14.60;99.90;;;;;;7394875;19;20127;-76
2023/08/07 02:28:50;;;;;;;4.43;1.20;;;14.70;99.90;;;;;;7394889;19;20129;-74
2023/08/07 02:31:16;;;;;;;1.55;0.80;;;14.60;99.90;;;;;;7395580;19;20133;-73
2023/08/07 02:33:42;;;;;;;1.55;0.90;;;14.80;99.90;;;;;;7392741;19;20203;-74
2023/08/07 02:36:08;;;;;;;2.45;1.08;;;14.90;99.90;;;;;;7393050;19;20152;-73
2023/08/07 02:38:34;;;;;;;3.42;1.13;;;14.90;99.90;;;;;;7391850;19;20156;-73
2023/08/07 02:40:59;;;;;;;2.63;1.67;;;15.00;99.90;;;;;;7392438;19;20801;-73
2023/08/07 02:43:27;;;;;;;1.50;1.00;;;14.80;99.90;;;;;;7390062;19;20165;-74
2023/08/07 02:45:52;;;;;;;3.60;1.30;;;14.70;99.90;;;;;;7393717;19;20866;-73
2023/08/07 02:48:19;;;;;;;5.60;1.13;;;14.70;99.90;;;;;;7392829;19;20280;-73
2023/08/07 02:50:44;;;;;;;2.05;0.93;;;14.40;99.90;;;;;;7393613;19;21016;-74
2023/08/07 02:53:11;;;;;;;2.45;1.00;;;14.50;99.90;;;;;;7393113;19;20142;-74
2023/08/07 02:55:39;;;;;;;2.50;1.10;;;14.60;99.90;;;;;;7392259;19;20164;-74
2023/08/07 02:58:05;;;;;;;3.30;1.23;;;14.70;99.90;;;;;;7392646;19;20131;-76
2023/08/07 03:00:30;;;;;;;4.30;1.00;;;14.70;99.90;;;;;;7393441;19;20201;-74
2023/08/07 03:02:56;;;;;;;2.67;1.00;;;14.60;99.90;;;;;;7393275;19;20146;-75
2023/08/07 03:05:22;;;;;;;2.85;1.10;;;14.70;99.90;;;;;;7391488;19;20170;-75
2023/08/07 03:07:48;;;;;;;3.05;1.17;;;14.80;99.90;;;;;;7393938;19;20222;-74
2023/08/07 03:10:14;;;;;;;1.83;0.90;;;14.60;99.90;;;;;;7394279;19;20134;-75
2023/08/07 03:12:39;;;;;;;1.27;1.10;;;14.70;99.90;;;;;;7392791;19;20618;-73
2023/08/07 03:15:06;;;;;;;3.17;1.10;;;14.50;99.90;;;;;;7393098;19;20189;-74
2023/08/07 03:17:32;;;;;;;1.50;1.17;;;14.60;99.90;;;;;;7391054;19;20141;-76
2023/08/07 03:19:57;;;;;;;2.58;0.93;;;14.70;99.90;;;;;;7392621;19;20142;-74
2023/08/07 03:22:23;;;;;;;2.42;1.20;;;14.70;99.90;;;;;;7390473;19;20138;-74
2023/08/07 03:24:49;;;;;;;2.28;1.08;;;14.70;99.90;;;;;;7392241;19;20166;-74
2023/08/07 03:27:15;;;;;;;5.13;1.60;;;14.80;99.90;;;;;;7391583;19;20587;-74
2023/08/07 03:29:41;;;;;;;3.72;1.30;;;14.70;99.90;;;;;;7394069;19;20139;-73
2023/08/07 03:32:08;;;;;;;2.90;1.30;;;14.60;99.90;;;;;;7392745;19;20169;-73
2023/08/07 03:34:34;;;;;;;3.03;1.30;;;14.70;99.90;;;;;;7391787;19;20143;-74
2023/08/07 03:36:59;;;;;;;4.72;1.80;;;14.60;99.90;;;;;;7390883;19;20150;-73
2023/08/07 03:39:25;;;;;;;3.30;1.30;;;14.60;99.90;;;;;;7389361;19;20178;-73
2023/08/07 03:41:51;;;;;;;4.10;1.23;;;14.40;99.90;;;;;;7392091;19;20591;-74
2023/08/07 03:44:17;;;;;;;2.72;1.02;;;14.50;99.90;;;;;;7392083;19;20131;-74
2023/08/07 03:46:42;;;;;;;4.03;1.63;;;14.50;99.90;;;;;;7392850;19;20141;-74
2023/08/07 03:49:08;;;;;;;5.28;1.50;;;14.30;99.90;;;;;;7392348;19;20158;-74
2023/08/07 03:51:34;;;;;;;3.65;1.85;;;14.40;99.90;;;;;;7393901;19;20145;-74
2023/08/07 03:54:00;;;;;;;3.10;2.05;;;14.50;99.90;;;;;;7390977;19;20150;-74
2023/08/07 03:56:25;;;;;;;3.25;1.42;;;14.40;99.90;;;;;;7391913;19;20656;-74
2023/08/07 03:58:51;;;;;;;5.15;1.30;;;14.50;99.90;;;;;;7388112;19;20508;-75
2023/08/07 04:01:17;;;;;;;2.80;1.55;;;14.70;99.90;;;;;;7391699;19;20134;-74
2023/08/07 04:03:43;;;;;;;4.68;1.52;;;14.50;99.90;;;;;;7391976;19;20149;-72
2023/08/07 04:06:12;;;;;;;3.55;1.70;;;14.50;99.90;;;;;;7390569;19;20213;-73
2023/08/07 04:08:38;;;;;;;5.15;1.27;;;14.30;99.90;;;;;;7389755;19;20579;-74
2023/08/07 04:11:05;;;;;;;2.53;1.20;;;14.40;99.90;;;;;;7390411;19;20153;-75
2023/08/07 04:13:31;;;;;;;2.78;1.58;;;14.40;99.90;;;;;;7390578;19;20142;-75
2023/08/07 04:15:58;;;;;;;2.40;1.35;;;14.50;99.90;;;;;;7391683;19;20165;-75
2023/08/07 04:18:24;;;;;;;5.72;1.40;;;14.50;99.90;;;;;;7389747;19;20143;-75
2023/08/07 04:20:54;;;;;;;3.15;1.13;;;14.50;99.90;;;;;;7391112;19;20131;-75
2023/08/07 04:23:20;;;;;;;3.83;1.52;;;14.40;99.90;;;;;;7390162;19;20131;-75
2023/08/07 04:25:50;;;;;;;9.73;1.70;;;14.40;99.90;;;;;;7388154;19;20566;-75
2023/08/07 04:28:16;;;;;;;2.95;1.55;;;14.40;99.90;;;;;;7389154;19;20127;-76
2023/08/07 04:30:42;;;;;;;2.90;1.60;;;14.50;99.90;;;;;;7393112;19;20649;-75
2023/08/07 04:33:08;;;;;;;3.95;1.83;;;14.70;99.90;;;;;;7388530;19;20495;-75
2023/08/07 04:35:35;;;;;;;3.42;1.08;;;14.80;99.90;;;;;;7391910;19;20194;-75
2023/08/07 04:38:02;;;;;;;2.03;1.27;;;14.80;99.90;;;;;;7388407;19;20154;-74
2023/08/07 04:40:28;;;;;;;3.03;1.55;;;14.80;99.90;;;;;;7390887;19;20173;-73
2023/08/07 04:42:54;;;;;;;2.22;1.30;;;14.70;99.90;;;;;;7389704;19;20138;-75
2023/08/07 04:45:20;;;;;;;2.85;1.20;;;14.60;99.90;;;;;;7392887;19;20135;-74
2023/08/07 04:47:46;;;;;;;3.97;1.30;;;14.60;99.90;;;;;;7392034;19;20138;-75
2023/08/07 04:50:13;;;;;;;2.53;1.65;;;14.50;99.90;;;;;;7388900;19;20582;-75
2023/08/07 04:52:39;;;;;;;4.05;1.60;;;14.40;99.90;;;;;;7390638;19;20161;-75
2023/08/07 04:55:05;;;;;;;1.88;1.30;;;14.30;99.90;;;;;;7389564;19;20135;-75
2023/08/07 04:57:31;;;;;;;3.85;1.52;;;14.30;99.90;;;;;;7390102;19;20138;-74
2023/08/07 04:59:56;;;;;;;2.90;1.23;;;14.50;99.90;;;;;;7390708;19;20226;-74
2023/08/07 05:02:22;;;;;;;7.45;2.17;;;14.80;99.90;;;;;;7389749;19;20283;-74
2023/08/07 05:04:48;;;;;;;1.83;1.30;;;14.70;99.90;;;;;;7387656;19;20569;-74
2023/08/07 05:07:14;;;;;;;1.80;1.10;;;14.70;99.90;;;;;;7386428;19;20138;-74
2023/08/07 05:09:40;;;;;;;3.40;1.15;;;14.70;99.90;;;;;;7391160;19;20135;-74
2023/08/07 05:12:07;;;;;;;1.83;1.10;;;14.90;99.90;;;;;;7389817;19;20165;-74
2023/08/07 05:14:32;;;;;;;2.30;0.98;;;14.70;99.90;;;;;;7392548;19;20131;-77
2023/08/07 05:16:59;;;;;;;3.05;1.17;;;14.80;99.90;;;;;;7389611;19;20139;-74
2023/08/07 05:19:26;;;;;;;4.75;1.58;;;14.70;99.90;;;;;;7386445;19;20164;-75
2023/08/07 05:21:52;;;;;;;2.47;1.40;;;14.80;99.90;;;;;;7389597;19;20938;-73
2023/08/07 05:24:18;;;;;;;3.85;1.58;;;14.90;99.90;;;;;;7387319;19;20135;-74
2023/08/07 05:26:44;;;;;;;5.40;1.70;;;14.80;99.90;;;;;;7388773;19;20143;-72
2023/08/07 05:29:10;;;;;;;6.07;1.75;;;14.80;99.90;;;;;;7387029;19;20134;-72
2023/08/07 05:31:36;;;;;;;4.88;1.50;;;15.00;99.90;;;;;;7389004;19;20146;-73
2023/08/07 05:34:02;;;;;;;3.15;1.30;;;15.00;99.90;;;;;;7389599;19;20146;-73
2023/08/07 05:36:29;;;;;;;3.17;1.60;;;15.00;99.90;;;;;;7388491;19;20475;-73
2023/08/07 05:38:55;;;;;;;3.13;1.20;;;15.00;99.90;;;;;;7387042;19;20187;-73
2023/08/07 05:41:21;;;;;;;2.92;1.30;;;15.00;99.90;;;;;;7387416;19;20531;-73
2023/08/07 05:43:47;;;;;;;3.05;1.80;;;14.90;99.90;;;;;;7387889;19;20145;-73
2023/08/07 05:46:12;;;;;;;2.72;1.10;;;15.00;99.90;;;;;;7385646;19;20582;-74
2023/08/07 05:48:38;;;;;;;4.30;1.17;;;15.10;99.90;;;;;;7386019;19;20173;-75
2023/08/07 05:51:04;;;;;;;3.80;1.55;;;15.00;99.90;;;;;;7384742;19;20127;-72
2023/08/07 05:53:29;;;;;;;1.83;1.00;;;15.30;99.90;;;;;;7383914;19;20150;-77
2023/08/07 05:55:56;;;;;;;2.45;1.10;;;15.40;99.90;;;;;;7388761;19;20795;-74
2023/08/07 05:58:22;;;;;;;1.77;1.00;;;15.40;99.90;;;;;;7384289;19;20138;-73
2023/08/07 06:00:47;;;;;;;1.92;0.77;;;15.40;99.90;;;;;;7386037;19;20135;-73
2023/08/07 06:03:13;;;;;;;3.42;1.15;;;15.40;99.90;;;;;;7385875;19;20566;-74
2023/08/07 06:05:40;;;;;;;2.63;1.10;;;15.40;99.90;;;;;;7386757;19;20629;-73
2023/08/07 06:08:06;;;;;;;2.92;1.23;;;15.30;99.90;;;;;;7385489;19;20158;-73
2023/08/07 06:10:31;;;;;;;2.25;1.00;;;15.40;99.90;;;;;;7386180;19;20154;-74
2023/08/07 06:12:57;;;;;;;2.65;1.10;;;15.40;99.90;;;;;;7386573;19;20138;-73
2023/08/07 06:15:23;;;;;;;4.05;1.02;;;15.60;99.90;;;;;;7386465;19;20170;-74
2023/08/07 06:17:51;;;;;;;2.80;1.15;;;15.80;99.90;;;;;;7387279;19;20127;-74
2023/08/07 06:20:16;;;;;;;2.72;1.17;;;15.70;99.90;;;;;;7392660;19;20142;-75
2023/08/07 06:22:43;;;;;;;2.83;1.20;;;15.60;99.90;;;;;;7393801;19;20142;-73
2023/08/07 06:25:09;;;;;;;2.47;1.00;;;15.60;99.90;;;;;;7393331;19;20179;-75
2023/08/07 06:27:35;;;;;;;2.40;1.40;;;15.60;99.90;;;;;;7394252;19;20505;-74
2023/08/07 06:30:04;;;;;;;3.90;1.27;;;15.50;99.90;;;;;;7392254;19;20478;-74
2023/08/07 06:32:29;;;;;;;3.33;1.40;;;15.70;99.90;;;;;;7392887;19;20254;-72
2023/08/07 06:34:56;;;;;;;4.10;1.38;;;15.70;99.90;;;;;;7392497;19;20168;-74
2023/08/07 06:37:22;;;;;;;2.90;1.27;;;15.50;99.90;;;;;;7394566;19;20149;-74
2023/08/07 06:39:48;;;;;;;4.03;1.05;;;15.40;99.90;;;;;;7393312;19;20271;-75
2023/08/07 06:42:14;;;;;;;4.32;1.20;;;15.30;99.90;;;;;;7393087;19;20164;-73
2023/08/07 06:44:39;;;;;;;1.35;1.00;;;15.20;99.90;;;;;;7391893;19;20139;-73
2023/08/07 06:47:05;;;;;;;1.77;1.38;;;15.60;99.90;;;;;;7392462;19;20606;-74
2023/08/07 06:49:33;;;;;;;2.97;1.20;;;15.70;99.90;;;;;;7391827;19;20118;-75
2023/08/07 06:51:58;;;;;;;3.78;1.15;;;15.80;99.90;;;;;;7391193;19;20149;-76
2023/08/07 06:54:24;;;;;;;3.00;1.20;;;16.00;99.90;;;;;;7390281;19;20134;-72
2023/08/07 06:56:50;;;;;;;2.40;1.40;;;16.00;99.90;;;;;;7393263;19;20162;-75
2023/08/07 06:59:15;;;;;;;4.90;1.88;;;16.20;99.90;;;;;;7390667;19;20127;-73
2023/08/07 07:01:41;;;;;;;2.00;1.40;;;16.20;99.90;;;;;;7391281;19;20150;-74
2023/08/07 07:04:07;;;;;;;2.85;1.20;;;16.30;99.90;;;;;;7390154;19;20169;-72
2023/08/07 07:06:33;;;;;;;2.22;1.48;;;16.40;99.90;;;;;;7392248;19;20130;-73
2023/08/07 07:08:59;;;;;;;3.75;1.73;;;16.50;99.90;;;;;;7391361;19;20139;-74
2023/08/07 07:11:25;;;;;;;2.15;1.00;;;16.80;99.90;;;;;;7393134;19;20150;-74
2023/08/07 07:13:54;;;;;;;3.05;1.27;;;17.70;99.90;;;;;;7393168;19;20142;-75
2023/08/07 07:16:23;;;;;;;4.00;1.27;;;17.90;99.90;;;;;;7392643;19;20135;-76
2023/08/07 07:18:50;;;;;;;2.53;1.15;;;17.70;99.90;;;;;;7391088;19;20135;-76
2023/08/07 07:21:16;;;;;;;2.65;1.00;;;17.40;99.90;;;;;;7392964;19;20511;-75
2023/08/07 07:23:43;;;;;;;1.65;1.10;;;17.20;99.90;;;;;;7392999;19;20130;-74
2023/08/07 07:26:09;;;;;;;3.70;1.50;;;17.20;99.90;;;;;;7391730;19;20145;-73
2023/08/07 07:28:44;;;;;;;2.67;1.00;;;17.10;99.90;;;;;;7393086;19;20139;-75
2023/08/07 07:31:11;;;;;;;4.07;1.58;;;16.90;99.90;;;;;;7390832;19;20141;-74
2023/08/07 07:33:39;;;;;;;1.27;1.15;;;17.00;99.90;;;;;;7390318;19;20145;-74
2023/08/07 07:36:13;;;;;;;1.85;1.38;;;16.90;99.90;;;;;;7392336;19;20138;-73
2023/08/07 07:38:39;;;;;;;1.40;1.20;;;16.80;99.90;;;;;;7388896;19;20205;-72
2023/08/07 07:41:07;;;;;;;1.58;1.00;;;16.80;99.90;;;;;;7392508;19;20559;-73
2023/08/07 07:43:33;;;;;;;3.28;1.33;;;16.80;99.90;;;;;;7391516;19;20127;-75
2023/08/07 07:45:59;;;;;;;1.98;1.40;;;16.70;99.90;;;;;;7392294;19;20141;-77
2023/08/07 07:48:24;;;;;;;2.08;1.35;;;16.60;99.90;;;;;;7392752;19;20134;-75
2023/08/07 07:50:52;;;;;;;2.55;1.40;;;17.00;99.90;;;;;;7392145;19;20649;-75
2023/08/07 07:53:24;;;;;;;1.70;1.30;;;17.40;99.90;;;;;;7389179;19;20146;-74
2023/08/07 07:55:53;;;;;;;3.30;1.60;;;17.50;99.90;;;;;;7385372;19;20601;-75
2023/08/07 07:58:20;;;;;;;7.00;1.58;;;17.80;99.90;;;;;;7385447;19;20162;-75
2023/08/07 08:00:46;;;;;;;3.58;1.23;;;17.90;99.90;;;;;;7388991;19;20134;-73
2023/08/07 08:03:12;;;;;;;1.33;1.10;;;17.20;99.90;;;;;;7388716;19;20218;-74
2023/08/07 08:05:39;;;;;;;3.13;1.13;;;17.60;99.90;;;;;;7384789;19;20227;-74
2023/08/07 08:08:07;;;;;;;1.70;1.52;;;17.50;99.90;;;;;;7377872;19;20135;-74
2023/08/07 08:10:33;;;;;;;1.42;1.10;;;17.40;99.90;;;;;;7385252;19;20147;-75
2023/08/07 08:12:59;;;;;;;3.47;1.10;;;17.00;99.90;;;;;;7392685;19;20146;-73
2023/08/07 08:15:25;;;;;;;1.67;1.38;;;17.00;99.90;;;;;;7383096;19;20981;-75
2023/08/07 08:17:51;;;;;;;1.67;0.90;;;17.00;99.90;;;;;;7382003;19;20154;-73
2023/08/07 08:20:18;;;;;;;2.03;1.60;;;17.20;99.90;;;;;;7381474;19;20147;-72
2023/08/07 08:22:47;;;;;;;1.70;1.13;;;17.00;99.90;;;;;;7383612;19;20141;-72
2023/08/07 08:25:13;;;;;;;1.77;1.00;;;16.90;99.90;;;;;;7379187;19;20245;-73
2023/08/07 08:27:40;;;;;;;1.60;0.93;;;16.90;99.90;;;;;;7388084;19;20154;-74
2023/08/07 08:32:59;;;;;;;2.55;1.05;;;17.00;99.90;;;;;;7385407;19;20205;-74
2023/08/07 08:35:27;;;;;;;1.83;1.25;;;16.90;99.90;;;;;;7390889;19;20150;-74
2023/08/07 08:37:53;;;;;;;1.42;1.05;;;17.00;99.90;;;;;;7384943;19;20477;-76
2023/08/07 08:40:19;;;;;;;1.65;1.10;;;17.10;99.90;;;;;;7389403;19;20189;-75
2023/08/07 08:42:45;;;;;;;3.80;1.23;;;17.60;99.90;;;;;;7386382;19;20137;-75
2023/08/07 08:45:13;;;;;;;1.90;1.10;;;17.50;99.90;;;;;;7384112;19;20142;-74
2023/08/07 08:47:41;;;;;;;4.68;0.93;;;17.50;99.90;;;;;;7383138;19;20605;-75
2023/08/07 08:50:09;;;;;;;4.22;1.40;;;17.70;99.90;;;;;;7384952;19;20463;-74
2023/08/07 08:52:38;;;;;;;3.08;0.70;;;18.00;99.90;;;;;;7382815;19;20142;-76
2023/08/07 08:55:04;;;;;;;2.08;0.77;;;18.20;99.90;;;;;;7383561;19;20151;-74
2023/08/07 08:57:30;;;;;;;1.45;0.95;;;18.40;99.90;;;;;;7383803;19;20571;-75
2023/08/07 09:00:00;;;;;;;2.33;1.08;;;18.30;99.90;;;;;;7382546;19;20146;-74
2023/08/07 09:02:26;;;;;;;1.05;0.95;;;18.10;99.90;;;;;;7385535;19;20174;-75
2023/08/07 09:04:52;;;;;;;2.05;0.80;;;18.10;99.90;;;;;;7385295;19;20511;-75
2023/08/07 09:07:20;;;;;;;3.35;1.08;;;18.20;99.90;;;;;;7390605;19;20213;-74
2023/08/07 09:09:47;;;;;;;1.23;0.85;;;18.10;99.90;;;;;;7387841;19;20143;-75
2023/08/07 09:12:21;;;;;;;1.33;0.98;;;18.10;99.90;;;;;;7392395;19;20567;-75
2023/08/07 09:14:55;;;;;;;2.05;0.93;;;18.00;99.90;;;;;;7380042;19;20137;-77
2023/08/07 09:17:36;;;;;;;2.67;0.98;;;18.30;99.90;;;;;;7381072;19;20142;-74
2023/08/07 09:20:04;;;;;;;1.48;0.90;;;18.70;99.90;;;;;;7383693;19;20178;-75
2023/08/07 09:22:30;;;;;;;1.23;0.88;;;18.50;99.90;;;;;;7387065;19;20146;-73
2023/08/07 09:24:57;;;;;;;2.28;0.75;;;18.50;99.90;;;;;;7386773;19;20600;-73
2023/08/07 09:27:24;;;;;;;1.80;1.00;;;18.80;99.90;;;;;;7387219;19;20148;-73
2023/08/07 09:29:50;;;;;;;4.45;1.00;;;18.40;99.90;;;;;;7386926;19;20152;-74
2023/08/07 09:32:18;;;;;;;3.15;0.82;;;18.10;99.90;;;;;;7385460;19;20503;-73
2023/08/07 09:34:44;;;;;;;0.90;0.80;;;18.10;99.90;;;;;;7388252;19;20849;-75
2023/08/07 09:37:10;;;;;;;0.73;0.70;;;18.10;99.90;;;;;;7388308;19;20153;-75
2023/08/07 09:39:37;;;;;;;1.25;0.90;;;18.10;99.90;;;;;;7385547;19;20135;-75
2023/08/07 09:42:14;;;;;;;1.42;0.98;;;18.20;99.90;;;;;;7371580;19;20134;-73
2023/08/07 09:44:39;;;;;;;2.95;1.10;;;18.20;99.90;;;;;;7376429;19;20175;-75
2023/08/07 09:47:16;;;;;;;2.60;0.70;;;18.40;99.90;;;;;;7378326;19;21338;-75
2023/08/07 09:49:43;;;;;;;3.08;1.20;;;18.40;99.90;;;;;;7376021;19;20158;-74
2023/08/07 09:52:10;;;;;;;4.28;1.42;;;18.40;99.90;;;;;;7382417;19;20757;-75
2023/08/07 09:54:37;;;;;;;1.67;0.90;;;18.50;99.90;;;;;;7393026;19;20134;-75
2023/08/07 09:57:04;;;;;;;4.53;1.10;;;18.70;99.90;;;;;;7393074;19;20152;-73
2023/08/07 09:59:31;;;;;;;1.15;0.85;;;18.80;99.90;;;;;;7390508;19;20511;-74
2023/08/07 10:01:59;;;;;;;1.77;1.00;;;18.80;99.90;;;;;;7392936;19;20135;-75
2023/08/07 10:04:26;;;;;;;1.35;0.82;;;18.90;99.90;;;;;;7388891;19;20616;-74
2023/08/07 10:06:52;;;;;;;1.88;1.05;;;19.10;99.90;;;;;;7393018;19;20463;-75
2023/08/07 10:09:18;;;;;;;2.05;0.95;;;19.40;99.90;;;;;;7396560;19;20165;-75
2023/08/07 10:11:44;;;;;;;1.65;0.90;;;19.70;99.90;;;;;;7394933;19;20193;-76
2023/08/07 10:14:12;;;;;;;3.05;1.30;;;19.90;99.90;;;;;;7391643;19;20154;-75
2023/08/07 10:16:41;;;;;;;3.38;1.00;;;20.00;99.90;;;;;;7392601;19;20165;-75
2023/08/07 10:19:10;;;;;;;1.02;0.93;;;20.30;99.90;;;;;;7391001;19;20159;-76
2023/08/07 10:21:39;;;;;;;3.80;1.08;;;20.10;99.90;;;;;;7394475;19;20590;-76
2023/08/07 10:24:06;;;;;;;2.10;1.30;;;20.00;99.90;;;;;;7392744;19;20681;-78
2023/08/07 10:26:34;;;;;;;1.80;1.10;;;20.00;99.90;;;;;;7393098;19;20139;-75
2023/08/07 10:29:02;;;;;;;1.50;0.95;;;19.90;99.90;;;;;;7395892;19;20252;-76
2023/08/07 10:31:30;;;;;;;1.50;1.10;;;19.60;99.90;;;;;;7394970;19;20213;-75
2023/08/07 10:33:56;;;;;;;1.27;0.98;;;19.20;99.90;;;;;;7391043;19;20135;-75
2023/08/07 10:36:21;;;;;;;1.20;0.90;;;19.10;99.90;;;;;;7392266;19;20149;-73
2023/08/07 10:39:05;;;;;;;3.58;1.30;;;19.10;99.90;;;;;;7389866;19;20139;-75
2023/08/07 10:41:38;;;;;;;2.17;1.02;;;19.10;99.90;;;;;;7395448;19;20134;-75
2023/08/07 10:44:04;;;;;;;2.05;1.08;;;18.90;99.90;;;;;;7391454;19;20131;-74
2023/08/07 10:46:48;;;;;;;1.88;1.02;;;18.70;99.90;;;;;;7393322;19;20152;-76
2023/08/07 10:49:32;;;;;;;2.50;0.98;;;18.70;99.90;;;;;;7396445;19;20206;-74
2023/08/07 10:52:01;;;;;;;1.10;0.80;;;18.50;99.90;;;;;;7397752;19;20130;-75
2023/08/07 10:54:27;;;;;;;1.50;1.10;;;18.40;99.90;;;;;;7395904;19;20139;-74
2023/08/07 10:56:56;;;;;;;0.82;0.82;;;18.50;99.90;;;;;;7392563;19;20141;-75
2023/08/07 10:59:22;;;;;;;5.18;2.80;;;18.50;99.90;;;;;;7391571;19;20138;-76
2023/08/07 11:01:54;;;;;;;1.52;1.08;;;18.50;99.90;;;;;;7392841;19;20154;-74
2023/08/07 11:04:25;;;;;;;1.65;1.20;;;18.70;99.90;;;;;;7387041;19;20182;-75
2023/08/07 11:06:51;;;;;;;1.73;0.98;;;18.80;99.90;;;;;;7393987;19;20506;-75
2023/08/07 11:09:17;;;;;;;2.13;1.05;;;18.80;99.90;;;;;;7393044;19;20150;-75
2023/08/07 11:11:47;;;;;;;3.08;1.58;;;19.00;99.90;;;;;;7398342;19;20164;-76
2023/08/07 11:14:15;;;;;;;3.55;1.38;;;19.00;99.90;;;;;;7392762;19;20142;-76
2023/08/07 11:16:42;;;;;;;2.17;1.35;;;19.00;99.90;;;;;;7391779;19;20138;-76
2023/08/07 11:19:09;;;;;;;7.18;5.20;;;18.90;99.90;;;;;;7384201;19;20907;-74
2023/08/07 11:21:36;;;;;;;1.52;0.90;;;18.50;99.90;;;;;;7388135;19;20270;-73
2023/08/07 11:24:02;;;;;;;1.50;1.20;;;18.60;99.90;;;;;;7390035;19;20206;-74
2023/08/07 11:26:28;;;;;;;2.55;1.27;;;18.60;99.90;;;;;;7389867;19;20138;-76
2023/08/07 11:29:00;;;;;;;1.90;1.20;;;18.50;99.90;;;;;;7394305;19;20130;-74
2023/08/07 11:31:27;;;;;;;1.20;0.93;;;18.40;99.90;;;;;;7391379;19;20637;-74
2023/08/07 11:33:54;;;;;;;1.42;1.10;;;18.60;99.90;;;;;;7392836;19;20153;-76
2023/08/07 11:36:22;;;;;;;2.65;0.82;;;18.50;99.90;;;;;;7393580;19;20209;-75
2023/08/07 11:38:48;;;;;;;1.80;1.20;;;18.30;99.90;;;;;;7390913;19;20258;-76
2023/08/07 11:41:16;;;;;;;1.38;0.90;;;18.20;99.90;;;;;;7392914;19;20138;-76
2023/08/07 11:43:43;;;;;;;1.30;1.17;;;18.10;99.90;;;;;;7394187;19;20596;-75
2023/08/07 11:46:10;;;;;;;1.33;1.10;;;18.00;99.90;;;;;;7391615;19;20154;-75
2023/08/07 11:48:37;;;;;;;1.00;0.90;;;17.90;99.90;;;;;;7393260;19;20141;-76
2023/08/07 11:51:04;;;;;;;2.25;1.00;;;18.00;99.90;;;;;;7390905;19;20152;-75
2023/08/07 11:53:35;;;;;;;2.65;1.30;;;18.00;99.90;;;;;;7392389;19;20234;-74
2023/08/07 11:56:03;;;;;;;2.55;1.40;;;18.00;99.90;;;;;;7392930;19;20126;-76
2023/08/07 11:58:41;;;;;;;1.77;1.20;;;18.00;99.90;;;;;;7391028;19;20146;-74
2023/08/07 12:01:17;;;;;;;2.58;0.90;;;18.00;99.90;;;;;;7388707;19;20566;-76
2023/08/07 12:03:55;;;;;;;2.70;2.00;;;18.10;99.90;;;;;;7390437;19;20257;-76
2023/08/07 12:06:23;;;;;;;2.13;1.75;;;18.00;99.90;;;;;;7393790;19;20230;-75
2023/08/07 12:08:53;;;;;;;4.55;1.25;;;17.80;99.90;;;;;;7394286;19;20142;-78
2023/08/07 12:11:19;;;;;;;2.47;1.40;;;18.10;99.90;;;;;;7389149;19;20335;-73
2023/08/07 12:13:46;;;;;;;13.75;8.40;;;18.10;99.90;;;;;;7390838;19;20150;-75
2023/08/07 12:16:16;;;;;;;3.33;2.40;;;18.00;99.90;;;;;;7390978;19;20149;-73
2023/08/07 12:18:49;;;;;;;1.33;1.13;;;17.90;99.90;;;;;;7390102;19;20603;-75
2023/08/07 12:21:18;;;;;;;1.60;1.20;;;17.80;99.90;;;;;;7390721;19;20187;-74
2023/08/07 12:23:44;;;;;;;2.33;1.40;;;18.10;99.90;;;;;;7390137;19;20135;-75
2023/08/07 12:26:10;;;;;;;1.45;1.00;;;18.10;99.90;;;;;;7389406;19;20131;-74
2023/08/07 12:28:36;;;;;;;1.33;1.13;;;18.30;99.90;;;;;;7387512;19;20171;-75
2023/08/07 12:31:03;;;;;;;3.58;1.40;;;18.30;99.90;;;;;;7388419;19;20135;-73
2023/08/07 12:33:29;;;;;;;2.10;1.20;;;18.50;99.90;;;;;;7388783;19;20135;-75
2023/08/07 12:35:55;;;;;;;9.27;5.32;;;18.50;99.90;;;;;;7390805;19;20258;-75
2023/08/07 12:38:21;;;;;;;8.27;4.93;;;18.30;99.90;;;;;;7390393;19;20619;-74
2023/08/07 12:40:47;;;;;;;1.40;1.30;;;18.60;99.90;;;;;;7392534;19;20761;-75
2023/08/07 12:43:12;;;;;;;2.55;1.17;;;18.60;99.90;;;;;;7391444;19;20138;-76
2023/08/07 12:45:38;;;;;;;3.00;0.85;;;18.60;99.90;;;;;;7389930;19;20483;-74
2023/08/07 12:48:05;;;;;;;4.35;1.15;;;18.60;99.90;;;;;;7390019;19;20127;-74
2023/08/07 12:50:31;;;;;;;1.73;1.00;;;18.60;99.90;;;;;;7390250;19;20138;-74